Time;durP1;ratioP1;P1;durP2;ratioP2;P2;SDS_P1;SDS_P2;PMS_P1;PMS_P2;Temp;Humidity;BMP_temperature;BMP_pressure;BME280_temperature;BME280_humidity;BME280_pressure;Samples;Min_cycle;Max_cycle;Signal;HPM_P1;HPM_P2
2022/11/22 00:00:54;;;;;;;5.55;2.15;;;6.80;67.20;;;;;;5001698;28;20102;-88
2022/11/22 00:03:39;;;;;;;6.13;3.15;;;6.70;67.00;;;;;;5006975;28;20092;-86
2022/11/22 00:06:23;;;;;;;6.78;2.42;;;6.70;67.10;;;;;;4996445;28;20041;-89
2022/11/22 00:09:08;;;;;;;6.53;2.10;;;6.60;67.00;;;;;;4994504;28;20065;-87
2022/11/22 00:11:53;;;;;;;6.25;2.22;;;6.60;66.90;;;;;;5003641;28;20053;-86
2022/11/22 00:14:37;;;;;;;5.32;2.10;;;6.60;67.00;;;;;;5004037;28;20041;-85
2022/11/22 00:17:22;;;;;;;5.97;1.42;;;6.50;66.90;;;;;;4993785;28;20057;-86
2022/11/22 00:20:09;;;;;;;2.92;1.85;;;6.50;67.00;;;;;;5003460;28;20045;-86
2022/11/22 00:22:57;;;;;;;7.90;2.00;;;6.50;67.00;;;;;;5000289;28;20037;-85
2022/11/22 00:25:41;;;;;;;4.28;2.00;;;6.50;67.00;;;;;;4995106;28;20061;-89
2022/11/22 00:28:26;;;;;;;5.43;1.92;;;6.40;66.90;;;;;;5005215;28;20061;-91
2022/11/22 00:31:11;;;;;;;5.82;2.35;;;6.40;66.90;;;;;;5006577;28;20040;-91
2022/11/22 00:33:56;;;;;;;3.95;1.95;;;6.40;66.90;;;;;;4997961;28;20049;-89
2022/11/22 00:36:40;;;;;;;3.10;1.70;;;6.40;66.90;;;;;;4996481;28;20062;-90
2022/11/22 00:39:25;;;;;;;3.88;1.90;;;6.30;66.80;;;;;;5001301;28;20033;-88
2022/11/22 00:42:10;;;;;;;7.03;2.10;;;6.30;66.80;;;;;;5002120;28;20061;-88
2022/11/22 00:44:54;;;;;;;7.03;1.77;;;6.30;66.80;;;;;;5001076;28;20084;-87
2022/11/22 00:47:39;;;;;;;6.88;2.25;;;6.30;66.80;;;;;;4987384;28;20061;-87
2022/11/22 00:50:23;;;;;;;3.80;1.67;;;6.20;66.60;;;;;;4998281;28;20399;-87
2022/11/22 00:53:08;;;;;;;4.25;1.92;;;6.20;66.70;;;;;;5002463;28;20090;-89
2022/11/22 00:55:53;;;;;;;3.40;2.10;;;6.20;66.70;;;;;;5003610;28;20057;-89
2022/11/22 00:58:38;;;;;;;4.10;1.60;;;6.10;66.60;;;;;;5002483;28;20044;-90
2022/11/22 01:01:22;;;;;;;4.53;2.28;;;6.10;66.60;;;;;;5002862;28;20069;-89
2022/11/22 01:04:07;;;;;;;7.30;2.10;;;6.10;66.70;;;;;;5001681;28;20057;-87
2022/11/22 01:06:51;;;;;;;4.90;1.65;;;6.10;66.70;;;;;;5001924;28;20086;-85
2022/11/22 01:09:36;;;;;;;5.65;1.92;;;6.10;66.70;;;;;;5000084;28;20059;-86
2022/11/22 01:12:21;;;;;;;4.88;1.83;;;6.00;66.60;;;;;;5001151;28;20081;-87
2022/11/22 01:15:06;;;;;;;6.82;1.92;;;6.10;66.80;;;;;;4986396;28;20631;-87
2022/11/22 01:17:51;;;;;;;4.50;1.60;;;6.00;66.70;;;;;;4997479;28;20056;-89
2022/11/22 01:20:38;;;;;;;4.53;1.70;;;6.00;66.70;;;;;;5004396;28;20045;-89
2022/11/22 01:23:23;;;;;;;7.05;1.35;;;6.10;66.90;;;;;;5005913;28;20077;-87
2022/11/22 01:26:08;;;;;;;6.75;1.75;;;6.10;66.90;;;;;;5008952;28;20068;-86
2022/11/22 01:28:52;;;;;;;3.88;1.63;;;6.10;66.90;;;;;;5010198;28;20207;-90
2022/11/22 01:31:37;;;;;;;5.57;1.35;;;6.20;67.00;;;;;;5011733;28;20042;-88
2022/11/22 01:34:22;;;;;;;3.90;1.10;;;6.20;67.00;;;;;;5009423;28;20073;-87
2022/11/22 01:37:07;;;;;;;4.10;1.30;;;6.20;67.00;;;;;;5015026;28;20081;-89
2022/11/22 01:39:51;;;;;;;4.70;1.58;;;6.20;67.00;;;;;;5010302;28;20096;-90
2022/11/22 01:42:49;;;;;;;5.72;1.42;;;6.20;67.00;;;;;;5003794;28;20061;-91
2022/11/22 01:45:41;;;;;;;4.45;1.40;;;6.20;67.00;;;;;;4995870;28;20054;-89
2022/11/22 01:48:30;;;;;;;2.53;1.13;;;6.20;67.00;;;;;;4999866;28;20062;-88
2022/11/22 01:51:28;;;;;;;8.18;1.42;;;6.20;67.00;;;;;;4998644;28;20054;-89
2022/11/22 01:54:18;;;;;;;2.97;0.93;;;6.20;67.00;;;;;;5003497;28;20050;-89
2022/11/22 01:57:09;;;;;;;1.77;1.30;;;6.20;67.00;;;;;;5002445;28;20077;-87
2022/11/22 01:59:59;;;;;;;1.85;1.08;;;6.20;67.10;;;;;;5001935;28;20425;-89
2022/11/22 02:02:49;;;;;;;4.68;1.02;;;6.20;67.10;;;;;;4991772;28;20635;-88
2022/11/22 02:05:34;;;;;;;2.58;1.00;;;6.20;67.20;;;;;;4995326;28;20102;-88
2022/11/22 02:08:41;;;;;;;4.43;1.23;;;6.20;67.20;;;;;;5000491;28;20025;-86
2022/11/22 02:11:27;;;;;;;4.40;1.15;;;6.30;67.40;;;;;;5000470;28;20081;-88
2022/11/22 02:14:12;;;;;;;4.80;1.13;;;6.30;67.40;;;;;;4996563;28;20061;-88
2022/11/22 02:16:57;;;;;;;4.20;0.80;;;6.30;67.30;;;;;;5002533;28;20049;-89
2022/11/22 02:19:45;;;;;;;6.05;1.98;;;6.40;67.50;;;;;;4998149;28;20065;-88
2022/11/22 02:22:50;;;;;;;3.35;0.90;;;6.40;67.50;;;;;;4997285;28;20069;-87
2022/11/22 02:25:51;;;;;;;4.45;1.38;;;6.40;67.50;;;;;;5003522;28;20049;-88
2022/11/22 02:28:38;;;;;;;4.25;1.30;;;6.50;67.60;;;;;;5002051;28;20061;-88
2022/11/22 02:31:38;;;;;;;4.88;1.15;;;6.60;67.70;;;;;;5002916;28;20106;-88
2022/11/22 02:34:23;;;;;;;1.83;1.10;;;6.60;67.70;;;;;;4999579;28;20201;-88
2022/11/22 02:37:08;;;;;;;2.63;0.80;;;6.60;67.60;;;;;;5000007;28;20104;-88
2022/11/22 02:39:58;;;;;;;4.22;1.08;;;6.60;67.60;;;;;;4998065;28;20069;-87
2022/11/22 02:42:51;;;;;;;3.33;1.10;;;6.70;67.80;;;;;;4994843;28;20074;-87
2022/11/22 02:45:36;;;;;;;3.88;1.10;;;6.80;67.90;;;;;;4991819;28;20044;-84
2022/11/22 02:48:21;;;;;;;3.15;0.95;;;6.80;67.90;;;;;;5000619;28;20053;-84
2022/11/22 02:51:06;;;;;;;1.90;1.40;;;6.80;67.80;;;;;;5001453;28;20049;-85
2022/11/22 02:53:52;;;;;;;2.75;0.95;;;6.80;67.80;;;;;;5001502;28;20591;-85
2022/11/22 02:56:36;;;;;;;2.42;0.68;;;6.90;68.00;;;;;;4984615;28;20054;-84
2022/11/22 02:59:21;;;;;;;7.38;0.98;;;6.90;68.00;;;;;;4997972;28;20537;-84
2022/11/22 03:02:06;;;;;;;1.95;1.00;;;6.90;68.00;;;;;;5001918;28;20566;-88
2022/11/22 03:04:51;;;;;;;4.18;0.88;;;7.00;68.10;;;;;;4990393;28;20050;-84
2022/11/22 03:07:35;;;;;;;3.97;1.33;;;7.00;68.10;;;;;;4996412;28;20045;-85
2022/11/22 03:10:20;;;;;;;2.40;0.65;;;7.00;68.10;;;;;;5001397;28;20049;-85
2022/11/22 03:13:04;;;;;;;4.75;1.02;;;7.00;68.10;;;;;;5001430;28;20073;-86
2022/11/22 03:15:49;;;;;;;3.60;1.20;;;7.10;68.30;;;;;;5000448;28;20081;-86
2022/11/22 03:18:35;;;;;;;3.80;1.17;;;7.10;68.30;;;;;;5009236;28;20065;-84
2022/11/22 03:21:19;;;;;;;2.95;0.95;;;7.10;68.40;;;;;;5000238;28;20044;-86
2022/11/22 03:24:05;;;;;;;5.85;1.08;;;7.10;68.40;;;;;;4983201;28;20050;-87
2022/11/22 03:26:50;;;;;;;1.45;0.82;;;7.10;68.30;;;;;;4996058;28;20037;-88
2022/11/22 03:29:35;;;;;;;3.58;1.40;;;7.10;68.30;;;;;;4996461;28;20026;-86
2022/11/22 03:32:19;;;;;;;2.88;0.90;;;7.20;68.50;;;;;;4990833;28;20221;-86
2022/11/22 03:35:04;;;;;;;4.63;1.00;;;7.20;68.50;;;;;;4995808;28;20061;-84
2022/11/22 03:37:49;;;;;;;1.67;0.68;;;7.20;68.40;;;;;;4999062;28;20042;-85
2022/11/22 03:40:34;;;;;;;1.60;0.50;;;7.20;68.50;;;;;;4999907;28;20061;-84
2022/11/22 03:43:19;;;;;;;2.30;0.52;;;7.20;68.40;;;;;;5001546;28;20073;-85
2022/11/22 03:46:03;;;;;;;5.15;0.70;;;7.20;68.50;;;;;;4989682;28;20103;-90
2022/11/22 03:48:48;;;;;;;1.52;0.73;;;7.20;68.50;;;;;;4994389;28;20101;-89
2022/11/22 03:51:32;;;;;;;2.67;0.88;;;7.20;68.50;;;;;;5001433;28;20096;-87
2022/11/22 03:54:17;;;;;;;2.38;0.90;;;7.20;68.60;;;;;;4997297;28;20041;-88
2022/11/22 03:57:02;;;;;;;2.42;0.60;;;7.20;68.70;;;;;;4980021;28;20049;-85
2022/11/22 03:59:46;;;;;;;2.45;0.60;;;7.20;68.60;;;;;;5003344;28;20092;-87
2022/11/22 04:02:31;;;;;;;2.60;0.80;;;7.20;68.70;;;;;;5005182;28;20033;-87
2022/11/22 04:05:16;;;;;;;2.13;0.80;;;7.20;68.70;;;;;;5002351;28;20100;-88
2022/11/22 04:08:00;;;;;;;1.95;0.63;;;7.20;68.70;;;;;;4986542;28;20094;-90
2022/11/22 04:10:48;;;;;;;1.13;0.60;;;7.20;68.70;;;;;;4999276;28;20057;-90
2022/11/22 04:16:35;;;;;;;3.85;1.05;;;7.20;68.70;;;;;;5004568;28;20069;-86
2022/11/22 04:19:20;;;;;;;3.38;0.68;;;7.30;68.90;;;;;;4991634;28;20070;-87
2022/11/22 04:22:04;;;;;;;3.35;0.73;;;7.20;68.70;;;;;;5003664;28;20062;-87
2022/11/22 04:27:53;;;;;;;2.53;0.80;;;7.20;68.70;;;;;;4979869;28;20034;-86
2022/11/22 04:33:41;;;;;;;4.97;0.95;;;7.20;68.70;;;;;;5004498;28;20046;-85
2022/11/22 04:36:25;;;;;;;7.95;0.68;;;7.30;68.90;;;;;;5003961;28;20042;-88
2022/11/22 04:39:10;;;;;;;1.92;0.80;;;7.20;68.70;;;;;;4991532;28;20127;-89
2022/11/22 04:44:59;;;;;;;1.02;0.50;;;7.30;68.90;;;;;;4992252;28;20053;-87
2022/11/22 04:47:59;;;;;;;1.58;0.63;;;7.20;68.70;;;;;;4985036;28;20561;-88
2022/11/22 04:53:47;;;;;;;2.88;0.80;;;7.20;68.80;;;;;;5003703;28;20107;-85
2022/11/22 04:56:32;;;;;;;3.55;0.73;;;7.20;68.80;;;;;;5003878;28;20034;-85
2022/11/22 04:59:16;;;;;;;1.25;0.50;;;7.20;68.80;;;;;;4985470;28;20046;-85
2022/11/22 05:02:01;;;;;;;1.88;0.77;;;7.10;68.70;;;;;;4998657;28;20061;-86
2022/11/22 05:04:46;;;;;;;1.70;0.77;;;7.10;68.80;;;;;;4984067;28;20069;-88
2022/11/22 05:07:32;;;;;;;3.28;0.60;;;7.00;68.60;;;;;;4981269;28;20041;-86
2022/11/22 05:10:16;;;;;;;1.92;0.70;;;7.00;68.70;;;;;;4987215;28;20092;-87
2022/11/22 05:13:01;;;;;;;2.83;1.40;;;7.00;68.80;;;;;;4983005;28;20086;-87
2022/11/22 05:15:46;;;;;;;2.00;0.90;;;6.90;68.60;;;;;;4982245;28;20053;-88
2022/11/22 05:18:31;;;;;;;2.33;0.60;;;6.90;68.70;;;;;;4987864;28;20057;-88
2022/11/22 05:21:15;;;;;;;1.52;0.73;;;6.90;68.80;;;;;;4976589;28;20046;-87
2022/11/22 05:24:01;;;;;;;2.47;0.80;;;6.90;68.80;;;;;;4986372;28;20109;-87
2022/11/22 05:26:45;;;;;;;2.40;0.70;;;6.90;68.90;;;;;;4994165;28;20061;-88
2022/11/22 05:29:30;;;;;;;1.92;0.70;;;6.90;68.90;;;;;;4997238;28;20438;-88
2022/11/22 05:32:14;;;;;;;1.48;0.73;;;6.90;69.00;;;;;;4981260;28;20037;-88
2022/11/22 05:34:58;;;;;;;2.80;0.98;;;6.90;69.00;;;;;;4990205;28;20151;-87
2022/11/22 05:37:43;;;;;;;5.60;1.98;;;6.90;69.00;;;;;;4990594;28;20045;-88
2022/11/22 05:40:28;;;;;;;1.13;0.70;;;6.90;69.00;;;;;;4985823;28;20049;-88
2022/11/22 05:43:12;;;;;;;1.55;1.05;;;6.90;69.00;;;;;;4983304;28;20093;-89
2022/11/22 05:46:12;;;;;;;1.40;0.88;;;6.90;69.00;;;;;;4980698;28;20053;-88
2022/11/22 05:48:58;;;;;;;1.80;1.13;;;6.90;69.00;;;;;;4984764;28;20052;-89
2022/11/22 05:51:42;;;;;;;1.80;0.88;;;6.90;68.90;;;;;;4982113;28;20072;-86
2022/11/22 05:54:27;;;;;;;2.15;1.08;;;6.90;68.90;;;;;;4982609;28;20560;-86
2022/11/22 05:57:12;;;;;;;1.40;0.88;;;6.90;68.90;;;;;;4986022;28;20422;-88
2022/11/22 05:59:56;;;;;;;2.45;2.08;;;6.90;68.90;;;;;;4983167;28;20116;-87
2022/11/22 06:02:41;;;;;;;2.35;1.17;;;6.90;68.90;;;;;;4972688;28;20057;-87
2022/11/22 06:05:26;;;;;;;11.73;2.15;;;6.90;69.40;;;;;;4987253;28;20057;-88
2022/11/22 06:08:12;;;;;;;2.25;0.93;;;6.90;68.90;;;;;;4986557;28;20050;-88
2022/11/22 06:11:03;;;;;;;3.13;1.23;;;6.90;69.00;;;;;;4985023;28;20418;-89
2022/11/22 06:13:50;;;;;;;2.28;1.10;;;6.90;69.00;;;;;;4984009;28;20129;-89
2022/11/22 06:16:35;;;;;;;3.58;1.33;;;6.90;69.10;;;;;;4981671;28;20053;-87
2022/11/22 06:19:20;;;;;;;3.03;1.33;;;6.80;69.00;;;;;;4976692;28;20128;-87
2022/11/22 06:22:05;;;;;;;4.00;1.40;;;6.80;69.00;;;;;;4986429;28;20552;-87
2022/11/22 06:24:49;;;;;;;4.90;1.52;;;6.80;69.00;;;;;;4984502;28;20061;-87
2022/11/22 06:27:33;;;;;;;3.10;1.27;;;6.80;69.10;;;;;;4983286;28;20097;-87
2022/11/22 06:30:18;;;;;;;4.45;1.58;;;6.80;69.10;;;;;;4984957;28;20049;-84
2022/11/22 06:33:03;;;;;;;2.95;1.50;;;6.80;69.10;;;;;;4981171;28;20877;-85
2022/11/22 06:35:47;;;;;;;3.53;2.00;;;6.80;69.20;;;;;;4981610;28;20042;-85
2022/11/22 06:38:33;;;;;;;2.83;1.77;;;6.70;69.00;;;;;;4984642;28;20037;-86
2022/11/22 06:41:20;;;;;;;2.30;1.60;;;6.80;69.20;;;;;;4984112;28;20093;-82
2022/11/22 06:44:06;;;;;;;3.08;2.05;;;6.70;69.00;;;;;;4984823;28;20057;-89
2022/11/22 06:46:51;;;;;;;3.00;1.90;;;6.80;69.20;;;;;;4982044;28;20053;-84
2022/11/22 06:49:35;;;;;;;3.13;1.77;;;6.70;69.00;;;;;;4977636;28;20636;-85
2022/11/22 06:52:20;;;;;;;5.97;2.05;;;6.70;69.00;;;;;;4981043;28;20049;-85
2022/11/22 06:55:05;;;;;;;2.33;2.00;;;6.80;69.20;;;;;;4985661;28;20410;-88
2022/11/22 06:57:53;;;;;;;3.15;2.00;;;6.70;69.00;;;;;;4973988;28;20521;-88
2022/11/22 07:00:37;;;;;;;7.60;3.92;;;6.70;69.00;;;;;;4982922;28;20145;-82
2022/11/22 07:03:22;;;;;;;4.50;3.30;;;6.70;69.00;;;;;;4975982;28;20053;-82
2022/11/22 07:06:08;;;;;;;7.40;3.67;;;6.70;69.10;;;;;;4985365;28;20046;-84
2022/11/22 07:08:53;;;;;;;6.63;3.55;;;6.70;69.20;;;;;;4985704;28;20598;-83
2022/11/22 07:11:39;;;;;;;7.60;4.28;;;6.80;69.40;;;;;;4982246;28;20039;-81
2022/11/22 07:14:24;;;;;;;8.48;4.20;;;6.80;69.40;;;;;;4984129;28;20045;-82
2022/11/22 07:17:09;;;;;;;10.18;4.90;;;6.80;69.40;;;;;;4970624;28;20072;-81
2022/11/22 07:19:53;;;;;;;8.48;4.82;;;6.80;69.50;;;;;;4981757;28;20137;-82
2022/11/22 07:22:37;;;;;;;7.70;4.95;;;6.70;69.30;;;;;;4982944;28;20465;-81
2022/11/22 07:25:22;;;;;;;6.05;4.53;;;6.70;69.30;;;;;;4973641;28;20179;-87
2022/11/22 07:28:06;;;;;;;8.77;4.70;;;6.70;69.40;;;;;;4982147;28;20045;-88
2022/11/22 07:30:51;;;;;;;7.35;4.63;;;6.60;69.20;;;;;;4983458;28;20406;-87
2022/11/22 07:33:36;;;;;;;7.05;5.03;;;6.60;69.30;;;;;;4980584;28;20418;-89
2022/11/22 07:36:22;;;;;;;9.68;5.13;;;6.50;69.20;;;;;;4986562;28;20044;-88
2022/11/22 07:39:06;;;;;;;8.55;5.10;;;6.50;69.20;;;;;;4981959;28;20100;-88
2022/11/22 07:41:51;;;;;;;7.32;5.43;;;6.50;69.30;;;;;;4988417;28;20093;-88
2022/11/22 07:44:35;;;;;;;9.10;5.30;;;6.50;69.30;;;;;;4980409;28;20130;-85
2022/11/22 07:47:20;;;;;;;11.18;5.85;;;6.50;69.30;;;;;;4984125;28;20564;-81
2022/11/22 07:50:05;;;;;;;12.07;7.03;;;6.50;69.30;;;;;;4961953;28;20374;-80
2022/11/22 07:52:59;;;;;;;15.98;8.13;;;6.40;69.20;;;;;;4973355;28;20050;-80
2022/11/22 07:55:44;;;;;;;18.08;6.70;;;6.40;69.20;;;;;;4972609;28;20049;-79
2022/11/22 07:58:28;;;;;;;16.48;7.32;;;6.40;69.20;;;;;;4983531;28;20461;-81
2022/11/22 08:01:16;;;;;;;16.73;8.00;;;6.40;69.20;;;;;;4986665;28;20469;-84
2022/11/22 08:04:00;;;;;;;15.00;8.32;;;6.50;69.40;;;;;;4984126;28;20057;-81
2022/11/22 08:06:45;;;;;;;16.00;7.88;;;6.50;69.30;;;;;;4987599;28;20089;-83
2022/11/22 08:09:30;;;;;;;17.08;8.43;;;6.50;69.30;;;;;;4987832;28;20126;-82
2022/11/22 08:12:14;;;;;;;17.88;8.60;;;6.50;69.30;;;;;;4986084;28;20085;-81
2022/11/22 08:14:59;;;;;;;16.85;7.97;;;6.50;69.30;;;;;;4990517;28;20513;-92
2022/11/22 08:17:43;;;;;;;11.60;7.22;;;6.50;69.20;;;;;;4984153;28;20501;-91
2022/11/22 08:20:27;;;;;;;16.00;8.40;;;6.50;69.20;;;;;;4979421;28;20066;-87
2022/11/22 08:23:12;;;;;;;19.48;8.85;;;6.50;69.30;;;;;;4995380;28;20461;-92
2022/11/22 08:25:58;;;;;;;13.55;7.13;;;6.60;69.50;;;;;;4996966;28;20045;-87
2022/11/22 08:28:42;;;;;;;13.75;7.55;;;6.70;69.60;;;;;;4986666;28;20052;-92
2022/11/22 08:31:27;;;;;;;13.80;7.18;;;6.80;69.70;;;;;;5005569;28;20316;-85
2022/11/22 08:34:12;;;;;;;11.77;7.00;;;6.80;69.70;;;;;;4995518;28;20034;-85
2022/11/22 08:36:56;;;;;;;13.95;7.65;;;6.90;69.80;;;;;;5004497;28;20037;-85
2022/11/22 08:39:41;;;;;;;14.07;7.78;;;6.90;69.80;;;;;;5001994;28;20073;-94
2022/11/22 08:42:26;;;;;;;11.25;6.88;;;6.90;69.70;;;;;;4977524;28;20050;-85
2022/11/22 08:45:10;;;;;;;10.73;7.05;;;6.90;69.70;;;;;;4975134;28;20053;-84
2022/11/22 08:47:57;;;;;;;12.23;6.65;;;6.90;69.60;;;;;;4972369;28;20414;-84
2022/11/22 08:50:48;;;;;;;11.82;7.63;;;6.90;69.60;;;;;;4987980;28;20037;-87
2022/11/22 08:53:34;;;;;;;10.27;6.75;;;6.90;69.60;;;;;;4992077;28;20141;-94
2022/11/22 08:56:19;;;;;;;9.00;5.85;;;6.90;69.70;;;;;;4990575;28;20080;-95
2022/11/22 08:59:03;;;;;;;10.98;6.25;;;6.90;69.70;;;;;;4988653;28;20547;-91
2022/11/22 09:01:48;;;;;;;8.20;6.43;;;7.00;69.90;;;;;;4984891;28;20110;-94
2022/11/22 09:04:33;;;;;;;7.50;5.93;;;7.00;69.90;;;;;;4992505;28;20092;-90
2022/11/22 09:07:17;;;;;;;9.27;5.85;;;7.10;70.00;;;;;;5000666;28;20049;-92
2022/11/22 09:10:04;;;;;;;10.90;6.22;;;7.10;69.90;;;;;;4980557;28;20037;-81
2022/11/22 09:12:48;;;;;;;9.95;5.72;;;7.20;70.00;;;;;;4986699;28;20406;-83
2022/11/22 09:15:33;;;;;;;8.75;6.15;;;7.30;70.00;;;;;;4967913;28;20058;-82
2022/11/22 09:18:17;;;;;;;9.00;5.90;;;7.30;69.90;;;;;;4981158;28;20104;-83
2022/11/22 09:21:22;;;;;;;7.47;4.82;;;7.40;70.00;;;;;;4984613;28;20390;-83
2022/11/22 09:24:07;;;;;;;8.75;4.88;;;7.50;70.20;;;;;;4976860;28;20297;-85
2022/11/22 09:26:51;;;;;;;7.82;4.80;;;7.50;70.00;;;;;;4974330;28;20052;-84
2022/11/22 09:29:36;;;;;;;8.52;5.22;;;7.50;70.00;;;;;;4986285;28;20049;-87
2022/11/22 09:32:21;;;;;;;6.75;4.00;;;7.60;70.10;;;;;;4983209;28;20092;-85
2022/11/22 09:35:05;;;;;;;7.85;4.18;;;7.60;70.10;;;;;;4974529;28;20045;-84
2022/11/22 09:37:50;;;;;;;5.18;3.75;;;7.70;70.30;;;;;;4983042;28;20524;-84
2022/11/22 09:40:35;;;;;;;6.22;3.80;;;7.80;70.30;;;;;;4985566;28;20053;-84
2022/11/22 09:43:34;;;;;;;7.75;3.45;;;7.90;70.40;;;;;;4978730;28;20061;-84
2022/11/22 09:46:18;;;;;;;5.05;3.83;;;8.00;70.60;;;;;;4972504;28;20077;-85
2022/11/22 09:49:24;;;;;;;5.35;3.13;;;8.10;70.60;;;;;;4985434;28;20513;-86
2022/11/22 09:52:39;;;;;;;7.40;2.58;;;8.10;70.60;;;;;;4980858;28;20089;-83
2022/11/22 09:55:37;;;;;;;7.03;2.45;;;8.30;71.40;;;;;;4985631;28;20041;-92
2022/11/22 09:58:37;;;;;;;6.30;2.65;;;8.40;70.90;;;;;;4981130;28;20053;-92
2022/11/22 10:01:26;;;;;;;7.28;2.42;;;8.50;71.00;;;;;;4973918;28;20112;-89
2022/11/22 10:04:31;;;;;;;3.78;2.40;;;8.60;70.90;;;;;;4974021;28;20116;-86
2022/11/22 10:07:22;;;;;;;7.93;2.72;;;8.70;71.00;;;;;;4979597;28;20041;-85
2022/11/22 10:10:12;;;;;;;6.07;2.53;;;8.80;71.00;;;;;;4984725;28;20500;-92
2022/11/22 10:13:17;;;;;;;4.63;1.95;;;9.00;71.20;;;;;;4987313;28;20068;-87
2022/11/22 10:16:15;;;;;;;6.72;2.22;;;9.10;71.20;;;;;;4974647;28;20073;-94
2022/11/22 10:19:09;;;;;;;5.57;2.55;;;9.20;71.30;;;;;;4992995;28;20524;-84
2022/11/22 10:21:53;;;;;;;6.32;2.08;;;9.30;71.30;;;;;;4970806;28;20073;-84
2022/11/22 10:24:38;;;;;;;4.85;2.05;;;9.30;71.20;;;;;;4979582;28;20140;-82
2022/11/22 10:27:26;;;;;;;5.47;2.10;;;9.40;71.50;;;;;;4985285;28;20037;-85
2022/11/22 10:30:15;;;;;;;5.65;2.38;;;9.40;71.50;;;;;;4981728;28;20080;-85
2022/11/22 10:33:21;;;;;;;7.30;2.20;;;9.40;71.60;;;;;;4981858;28;20145;-86
2022/11/22 10:36:16;;;;;;;2.80;1.58;;;9.50;71.80;;;;;;4977912;28;20046;-82
2022/11/22 10:39:16;;;;;;;6.82;2.35;;;9.50;71.80;;;;;;4985382;28;20053;-87
2022/11/22 10:42:19;;;;;;;4.90;1.95;;;9.40;71.80;;;;;;4986319;28;20129;-91
2022/11/22 10:45:28;;;;;;;4.82;1.48;;;9.50;72.00;;;;;;4971900;28;20054;-85
2022/11/22 10:48:23;;;;;;;8.07;2.85;;;9.50;72.10;;;;;;4973118;28;20485;-86
2022/11/22 10:52:05;;;;;;;7.20;2.42;;;9.60;72.20;;;;;;4984888;28;20081;-84
2022/11/22 10:54:55;;;;;;;6.10;2.15;;;9.80;72.40;;;;;;4953975;28;20057;-85
2022/11/22 10:57:50;;;;;;;6.15;2.10;;;10.00;72.30;;;;;;4961801;28;20058;-83
2022/11/22 11:00:39;;;;;;;5.35;1.80;;;10.20;72.20;;;;;;4981543;28;20402;-83
2022/11/22 11:03:29;;;;;;;3.40;1.77;;;10.40;72.20;;;;;;4980940;28;20108;-81
2022/11/22 11:06:16;;;;;;;4.32;1.65;;;10.60;72.20;;;;;;4987779;28;20390;-80
2022/11/22 11:09:10;;;;;;;5.20;1.70;;;10.80;72.30;;;;;;4989075;28;20041;-85
2022/11/22 11:11:55;;;;;;;8.23;2.50;;;10.90;72.20;;;;;;4972563;28;20568;-84
2022/11/22 11:14:46;;;;;;;5.47;1.88;;;11.10;72.40;;;;;;4989005;28;20192;-92
2022/11/22 11:17:35;;;;;;;6.15;2.10;;;11.20;72.40;;;;;;4989203;28;20045;-85
2022/11/22 11:20:26;;;;;;;7.18;2.08;;;11.40;72.60;;;;;;4980769;28;20036;-88
2022/11/22 11:23:10;;;;;;;5.45;2.33;;;11.50;72.70;;;;;;4998823;28;20065;-90
2022/11/22 11:26:27;;;;;;;6.70;2.22;;;11.70;72.80;;;;;;5011658;28;20060;-91
2022/11/22 11:29:17;;;;;;;6.68;2.30;;;11.90;72.90;;;;;;5003276;28;20066;-91
2022/11/22 11:32:13;;;;;;;5.85;2.55;;;12.10;72.90;;;;;;4995826;28;20312;-92
2022/11/22 11:35:05;;;;;;;5.03;1.90;;;12.20;72.80;;;;;;4982756;28;20053;-93
2022/11/22 11:37:49;;;;;;;6.43;2.13;;;12.30;72.80;;;;;;4990157;28;20057;-91
2022/11/22 11:40:33;;;;;;;4.25;1.70;;;12.40;72.80;;;;;;4990157;28;20597;-93
2022/11/22 11:43:20;;;;;;;6.05;2.60;;;12.50;72.80;;;;;;4982548;28;20053;-93
2022/11/22 11:46:16;;;;;;;3.85;1.65;;;12.50;72.70;;;;;;4981441;28;20053;-85
2022/11/22 11:49:15;;;;;;;5.72;1.90;;;12.60;72.70;;;;;;4993020;28;20410;-91
2022/11/22 11:52:15;;;;;;;3.30;1.48;;;12.60;72.70;;;;;;4988409;28;20120;-93
2022/11/22 11:55:01;;;;;;;4.88;2.33;;;12.70;72.80;;;;;;4992818;28;20069;-92
2022/11/22 11:57:47;;;;;;;5.97;1.77;;;12.80;72.80;;;;;;4990605;28;20045;-89
2022/11/22 12:00:37;;;;;;;4.13;1.60;;;12.80;72.60;;;;;;4981495;28;20049;-87
2022/11/22 12:03:24;;;;;;;4.70;1.70;;;12.80;72.50;;;;;;4992256;28;20053;-88
2022/11/22 12:06:13;;;;;;;6.25;2.67;;;12.70;72.40;;;;;;4982649;28;20117;-91
2022/11/22 12:08:59;;;;;;;4.28;1.67;;;12.60;72.20;;;;;;4987112;28;20104;-86
2022/11/22 12:11:49;;;;;;;5.00;1.95;;;12.60;72.30;;;;;;4984442;28;20150;-84
2022/11/22 12:14:36;;;;;;;3.50;2.22;;;12.50;72.20;;;;;;4988659;28;20655;-83
2022/11/22 12:17:26;;;;;;;8.00;2.08;;;12.40;72.10;;;;;;4979795;28;20046;-83
2022/11/22 12:20:18;;;;;;;5.57;1.88;;;12.30;72.00;;;;;;4986953;28;20398;-90
2022/11/22 12:23:30;;;;;;;7.50;2.07;;;12.20;71.90;;;;;;4989512;28;20124;-90
2022/11/22 12:26:14;;;;;;;4.72;1.83;;;12.10;71.80;;;;;;4987644;28;20343;-90
2022/11/22 12:28:59;;;;;;;6.78;2.53;;;12.10;71.90;;;;;;4983356;28;20053;-90
2022/11/22 12:31:52;;;;;;;5.47;1.70;;;12.10;72.00;;;;;;4974280;28;20448;-83
2022/11/22 12:34:45;;;;;;;9.02;2.58;;;12.00;71.80;;;;;;4983363;28;20437;-89
2022/11/22 12:37:53;;;;;;;6.75;2.17;;;11.90;71.70;;;;;;4982503;28;20077;-92
2022/11/22 12:40:43;;;;;;;3.70;1.77;;;11.90;71.70;;;;;;4987729;28;20125;-90
2022/11/22 12:43:44;;;;;;;4.80;1.90;;;11.80;71.60;;;;;;4986106;28;20119;-93
2022/11/22 12:46:55;;;;;;;5.00;2.15;;;11.80;71.40;;;;;;4983695;28;20212;-89
2022/11/22 12:49:47;;;;;;;3.25;1.75;;;11.80;71.40;;;;;;4979835;28;20111;-87
2022/11/22 12:52:38;;;;;;;3.35;1.27;;;11.80;71.40;;;;;;4988040;28;20427;-92
2022/11/22 12:55:24;;;;;;;4.15;1.50;;;11.70;71.20;;;;;;4987819;28;20048;-88
2022/11/22 12:58:18;;;;;;;5.45;1.48;;;11.70;71.20;;;;;;4981484;28;20040;-95
2022/11/22 13:01:19;;;;;;;5.32;2.38;;;11.60;70.90;;;;;;4974759;28;20073;-87
2022/11/22 13:04:18;;;;;;;2.95;2.22;;;11.60;70.80;;;;;;4986693;28;20048;-86
2022/11/22 13:07:36;;;;;;;4.05;1.58;;;11.60;70.80;;;;;;4984702;28;20049;-86
2022/11/22 13:10:30;;;;;;;3.72;1.25;;;11.60;70.70;;;;;;4986376;28;20425;-85
2022/11/22 13:13:26;;;;;;;2.97;1.20;;;11.60;70.70;;;;;;4987382;28;20084;-85
2022/11/22 13:16:11;;;;;;;3.22;1.33;;;11.60;70.60;;;;;;4975152;28;20045;-86
2022/11/22 13:18:56;;;;;;;2.00;1.10;;;11.50;70.50;;;;;;4984086;28;20049;-92
2022/11/22 13:21:59;;;;;;;1.45;1.00;;;11.50;70.40;;;;;;4990636;28;20501;-87
2022/11/22 13:25:18;;;;;;;3.83;1.33;;;11.50;70.20;;;;;;4987283;28;20057;-87
2022/11/22 13:28:12;;;;;;;4.38;1.10;;;11.50;70.20;;;;;;4980048;28;20033;-86
2022/11/22 13:31:11;;;;;;;2.58;1.05;;;11.40;70.00;;;;;;4980299;28;20386;-86
2022/11/22 13:33:57;;;;;;;3.10;1.38;;;11.40;69.90;;;;;;4969007;28;20432;-88
2022/11/22 13:36:49;;;;;;;2.38;1.33;;;11.40;69.90;;;;;;4976864;28;20045;-88
2022/11/22 13:39:37;;;;;;;3.65;0.90;;;11.40;69.90;;;;;;4987666;28;20104;-89
2022/11/22 13:42:27;;;;;;;2.15;0.95;;;11.40;69.80;;;;;;4988376;28;20081;-88
2022/11/22 13:45:22;;;;;;;1.70;0.90;;;11.40;69.70;;;;;;4986944;28;20129;-88
2022/11/22 13:48:09;;;;;;;2.95;1.08;;;11.40;69.60;;;;;;4976471;28;20053;-86
2022/11/22 13:50:56;;;;;;;2.33;1.55;;;11.40;69.60;;;;;;4985662;28;20173;-87
2022/11/22 13:53:46;;;;;;;2.45;0.68;;;11.40;69.60;;;;;;4987077;28;20100;-93
2022/11/22 13:56:53;;;;;;;2.53;0.93;;;11.30;69.40;;;;;;4990055;28;20033;-90
2022/11/22 13:59:38;;;;;;;1.38;0.82;;;11.30;69.40;;;;;;4981347;28;20077;-86
2022/11/22 14:02:25;;;;;;;3.00;0.80;;;11.30;69.30;;;;;;4986512;28;20585;-87
2022/11/22 14:05:20;;;;;;;3.50;0.90;;;11.30;69.30;;;;;;4986651;28;20155;-89
2022/11/22 14:08:25;;;;;;;2.05;0.93;;;11.20;69.10;;;;;;4985422;28;20100;-89
2022/11/22 14:11:37;;;;;;;2.30;1.00;;;11.20;69.10;;;;;;4977282;28;20100;-88
2022/11/22 14:14:22;;;;;;;4.35;1.25;;;11.20;69.10;;;;;;4979537;28;20088;-88
2022/11/22 14:17:16;;;;;;;1.73;0.80;;;11.20;69.70;;;;;;4991445;28;20053;-94
2022/11/22 14:20:28;;;;;;;4.45;1.40;;;11.20;69.10;;;;;;4998607;28;20045;-90
2022/11/22 14:23:15;;;;;;;3.13;1.25;;;11.10;68.90;;;;;;5002885;28;20049;-91
2022/11/22 14:26:27;;;;;;;3.15;1.50;;;11.10;69.00;;;;;;4996692;28;20127;-86
2022/11/22 14:29:49;;;;;;;3.60;1.38;;;11.10;69.00;;;;;;5001373;28;20048;-83
2022/11/22 14:33:02;;;;;;;4.60;1.42;;;11.10;68.90;;;;;;4989224;28;20546;-84
2022/11/22 14:36:05;;;;;;;7.13;1.80;;;11.10;69.00;;;;;;4999648;28;20065;-82
2022/11/22 14:38:50;;;;;;;3.50;1.88;;;11.00;68.80;;;;;;4980669;28;20704;-82
2022/11/22 14:41:42;;;;;;;3.53;1.23;;;11.10;69.10;;;;;;4983837;28;20464;-82
2022/11/22 14:44:33;;;;;;;7.15;1.88;;;11.10;69.00;;;;;;4985201;28;20544;-88
2022/11/22 14:47:18;;;;;;;2.97;1.38;;;11.00;68.90;;;;;;4984281;28;20061;-93
2022/11/22 14:50:12;;;;;;;5.18;1.80;;;11.10;69.00;;;;;;4980195;28;20085;-84
2022/11/22 14:53:03;;;;;;;2.17;1.65;;;11.10;69.00;;;;;;4975429;28;20286;-88
2022/11/22 14:55:51;;;;;;;6.47;1.63;;;11.20;69.00;;;;;;4986572;28;20044;-89
2022/11/22 14:59:07;;;;;;;5.43;2.33;;;11.30;69.10;;;;;;4988871;28;20048;-88
2022/11/22 15:02:32;;;;;;;3.78;1.48;;;11.40;69.00;;;;;;4983827;28;20100;-88